createdAt,value
2019-01-26T00:00:10.656Z,49.20
2019-01-26T00:02:37.374Z,59.20
2019-01-26T00:05:05.166Z,58.27
2019-01-26T00:07:31.916Z,61.53
2019-01-26T00:09:58.665Z,62.53
2019-01-26T00:12:25.352Z,59.77
2019-01-26T00:14:52.221Z,61.47
2019-01-26T00:17:18.992Z,54.87
2019-01-26T00:19:45.785Z,60.07
2019-01-26T00:22:12.430Z,66.80
2019-01-26T00:24:39.041Z,53.83
2019-01-26T00:27:05.758Z,53.57
2019-01-26T00:29:32.448Z,61.90
2019-01-26T00:31:59.064Z,59.47
2019-01-26T00:34:25.835Z,59.17
2019-01-26T00:36:53.707Z,59.20
2019-01-26T00:39:20.492Z,58.80
2019-01-26T00:41:47.264Z,51.87
2019-01-26T00:44:13.873Z,54.90
2019-01-26T00:46:40.732Z,65.57
2019-01-26T00:49:07.384Z,61.17
2019-01-26T00:51:34.304Z,69.03
2019-01-26T00:54:01.096Z,63.33
2019-01-26T00:56:27.755Z,60.30
2019-01-26T00:58:54.509Z,63.30
2019-01-26T01:01:21.207Z,56.70
2019-01-26T01:03:48.082Z,65.73
2019-01-26T01:06:17.843Z,56.63
2019-01-26T01:08:44.648Z,64.80
2019-01-26T01:11:11.493Z,62.17
2019-01-26T01:13:38.225Z,60.90
2019-01-26T01:16:05.127Z,61.57
2019-01-26T01:18:31.757Z,60.20
2019-01-26T01:20:58.492Z,60.40
2019-01-26T01:23:25.138Z,65.47
2019-01-26T01:25:51.781Z,67.50
2019-01-26T01:28:18.544Z,52.73
2019-01-26T01:30:45.169Z,71.13
2019-01-26T01:33:13.200Z,62.87
2019-01-26T01:35:40.149Z,70.43
2019-01-26T01:38:07.783Z,67.37
2019-01-26T01:40:34.842Z,65.37
2019-01-26T01:43:01.771Z,71.50
2019-01-26T01:45:28.367Z,61.23
2019-01-26T01:47:54.979Z,63.93
2019-01-26T01:50:21.909Z,67.93
2019-01-26T01:52:48.500Z,66.50
2019-01-26T01:55:15.497Z,67.13
2019-01-26T01:57:42.295Z,66.83
2019-01-26T02:00:17.229Z,60.03
2019-01-26T02:02:44.683Z,61.87
2019-01-26T02:05:11.824Z,64.73
2019-01-26T02:07:38.600Z,61.47
2019-01-26T02:10:06.776Z,70.03
2019-01-26T02:12:33.374Z,64.63
2019-01-26T02:15:00.264Z,59.80
2019-01-26T02:17:26.932Z,60.00
2019-01-26T02:19:53.883Z,69.70
2019-01-26T02:22:20.530Z,64.80
2019-01-26T02:24:47.135Z,60.57
2019-01-26T02:27:13.765Z,59.43
2019-01-26T02:29:40.478Z,65.50
2019-01-26T02:32:07.363Z,62.50
2019-01-26T02:34:34.068Z,70.33
2019-01-26T02:37:00.709Z,76.60
2019-01-26T02:39:27.550Z,60.43
2019-01-26T02:41:54.172Z,61.70
2019-01-26T02:44:20.819Z,66.40
2019-01-26T02:46:47.535Z,64.13
2019-01-26T02:49:14.198Z,71.57
2019-01-26T02:51:40.804Z,68.47
2019-01-26T02:54:07.761Z,67.10
2019-01-26T02:56:34.632Z,69.93
2019-01-26T02:59:01.457Z,68.23
2019-01-26T03:01:28.507Z,69.90
2019-01-26T03:03:55.224Z,72.00
2019-01-26T03:06:21.820Z,64.77
2019-01-26T03:08:48.467Z,69.97
2019-01-26T03:11:15.336Z,69.80
2019-01-26T03:13:41.913Z,61.10
2019-01-26T03:16:08.600Z,73.97
2019-01-26T03:18:35.277Z,71.17
2019-01-26T03:21:01.919Z,75.50
2019-01-26T03:23:28.586Z,78.90
2019-01-26T03:25:55.511Z,71.90
2019-01-26T03:28:22.244Z,70.90
2019-01-26T03:30:48.931Z,75.60
2019-01-26T03:33:15.542Z,74.53
2019-01-26T03:35:42.148Z,76.10
2019-01-26T03:38:08.853Z,72.43
2019-01-26T03:40:35.908Z,77.47
2019-01-26T03:43:02.892Z,76.90
2019-01-26T03:45:30.064Z,78.77
2019-01-26T03:47:56.877Z,72.97
2019-01-26T03:50:24.223Z,88.90
2019-01-26T03:52:51.216Z,88.87
2019-01-26T03:55:18.860Z,80.00
2019-01-26T03:57:45.451Z,81.70
2019-01-26T04:00:17.349Z,93.27
2019-01-26T04:02:44.375Z,85.47
2019-01-26T04:05:11.406Z,107.57
2019-01-26T04:07:38.316Z,77.60
2019-01-26T04:10:05.863Z,90.50
2019-01-26T04:12:32.525Z,104.37
2019-01-26T04:14:59.202Z,80.37
2019-01-26T04:17:25.901Z,93.77
2019-01-26T04:19:52.711Z,87.73
2019-01-26T04:22:19.378Z,75.20
2019-01-26T04:24:46.287Z,80.10
2019-01-26T04:27:13.109Z,81.93
2019-01-26T04:29:40.229Z,94.07
2019-01-26T04:32:07.051Z,83.83
2019-01-26T04:34:33.868Z,76.47
2019-01-26T04:37:00.756Z,80.77
2019-01-26T04:39:27.561Z,94.17
2019-01-26T04:41:54.433Z,88.73
2019-01-26T04:44:21.035Z,86.70
2019-01-26T04:46:47.857Z,78.30
2019-01-26T04:49:14.859Z,86.30
2019-01-26T04:51:41.664Z,81.50
2019-01-26T04:54:08.443Z,77.43
2019-01-26T04:56:35.288Z,85.60
2019-01-26T04:59:02.213Z,84.83
2019-01-26T05:01:29.104Z,89.00
2019-01-26T05:03:55.913Z,94.63
2019-01-26T05:06:22.715Z,94.70
2019-01-26T05:08:49.533Z,86.47
2019-01-26T05:11:16.446Z,83.60
2019-01-26T05:13:43.487Z,90.43
2019-01-26T05:16:10.541Z,89.33
2019-01-26T05:18:37.351Z,97.03
2019-01-26T05:21:04.272Z,86.47
2019-01-26T05:23:31.098Z,89.97
2019-01-26T05:25:57.942Z,89.67
2019-01-26T05:28:24.841Z,78.40
2019-01-26T05:30:51.644Z,84.53
2019-01-26T05:33:18.548Z,84.03
2019-01-26T05:35:45.387Z,112.00
2019-01-26T05:38:12.156Z,85.67
2019-01-26T05:40:38.987Z,84.20
2019-01-26T05:43:06.145Z,84.03
2019-01-26T05:45:32.971Z,82.53
2019-01-26T05:47:59.744Z,85.93
2019-01-26T05:50:26.705Z,85.80
2019-01-26T05:52:54.032Z,91.17
2019-01-26T05:55:21.060Z,88.33
2019-01-26T05:57:48.020Z,100.03
2019-01-26T06:00:16.830Z,99.47
2019-01-26T06:02:43.774Z,85.43
2019-01-26T06:05:10.750Z,106.23
2019-01-26T06:07:37.638Z,92.50
2019-01-26T06:10:04.625Z,101.30
2019-01-26T06:12:31.628Z,105.97
2019-01-26T06:14:58.464Z,112.63
2019-01-26T06:17:25.247Z,111.60
2019-01-26T06:19:52.051Z,111.77
2019-01-26T06:22:18.831Z,115.40
2019-01-26T06:24:45.652Z,127.93
2019-01-26T06:27:12.532Z,132.53
2019-01-26T06:29:39.299Z,129.63
2019-01-26T06:32:06.144Z,128.63
2019-01-26T06:34:32.964Z,127.57
2019-01-26T06:36:59.758Z,120.60
2019-01-26T06:39:26.855Z,114.20
2019-01-26T06:41:53.934Z,135.23
2019-01-26T06:44:20.741Z,128.77
2019-01-26T06:46:47.698Z,121.93
2019-01-26T06:49:14.684Z,113.77
2019-01-26T06:51:52.861Z,123.97
2019-01-26T06:54:20.050Z,123.13
2019-01-26T06:56:46.956Z,122.60
2019-01-26T06:59:13.768Z,134.13
2019-01-26T07:01:40.585Z,127.97
2019-01-26T07:04:09.259Z,120.20
2019-01-26T07:06:40.609Z,117.53
2019-01-26T07:09:07.448Z,120.00
2019-01-26T07:11:34.260Z,122.27
2019-01-26T07:14:01.035Z,118.37
2019-01-26T07:16:28.064Z,144.10
2019-01-26T07:18:54.886Z,138.10
2019-01-26T07:21:21.659Z,118.40
2019-01-26T07:23:48.464Z,129.57
2019-01-26T07:26:15.249Z,118.73
2019-01-26T07:28:42.053Z,131.67
2019-01-26T07:31:10.633Z,124.60
2019-01-26T07:33:37.479Z,123.50
2019-01-26T07:36:04.390Z,131.60
2019-01-26T07:38:31.692Z,121.07
2019-01-26T07:40:58.557Z,121.87
2019-01-26T07:43:25.332Z,107.27
2019-01-26T07:45:52.253Z,138.53
2019-01-26T07:48:19.273Z,151.77
2019-01-26T07:50:46.081Z,148.37
2019-01-26T07:53:12.996Z,141.33
2019-01-26T07:55:39.776Z,134.00
2019-01-26T07:58:06.574Z,140.00
2019-01-26T08:00:33.592Z,135.83
2019-01-26T08:03:00.387Z,138.53
2019-01-26T08:05:27.151Z,162.43
2019-01-26T08:07:53.943Z,151.13
2019-01-26T08:10:21.048Z,152.80
2019-01-26T08:12:48.308Z,171.90
2019-01-26T08:15:16.450Z,152.37
2019-01-26T08:17:43.278Z,198.60
2019-01-26T08:20:11.440Z,212.77
2019-01-26T08:22:38.259Z,141.27
2019-01-26T08:25:05.271Z,170.97
2019-01-26T08:27:32.153Z,202.53
2019-01-26T08:29:58.936Z,199.43
2019-01-26T08:32:25.716Z,173.00
2019-01-26T08:34:52.519Z,183.97
2019-01-26T08:37:19.339Z,155.33
2019-01-26T08:39:46.107Z,177.27
2019-01-26T08:42:13.176Z,159.93
2019-01-26T08:44:39.998Z,199.47
2019-01-26T08:47:06.796Z,197.67
2019-01-26T08:49:33.589Z,145.67
2019-01-26T08:52:00.420Z,175.07
2019-01-26T08:54:27.196Z,181.00
2019-01-26T08:56:54.092Z,182.80
2019-01-26T08:59:20.900Z,164.40
2019-01-26T09:01:49.603Z,208.40
2019-01-26T09:04:25.606Z,163.97
2019-01-26T09:07:01.470Z,187.57
2019-01-26T09:09:28.304Z,154.90
2019-01-26T09:11:55.192Z,175.87
2019-01-26T09:14:21.955Z,161.63
2019-01-26T09:16:48.784Z,158.60
2019-01-26T09:19:15.638Z,148.53
2019-01-26T09:21:42.433Z,146.47
2019-01-26T09:24:09.342Z,142.10
2019-01-26T09:26:36.140Z,173.97
2019-01-26T09:29:03.161Z,152.63
2019-01-26T09:31:30.192Z,156.27
2019-01-26T09:33:57.097Z,130.73
2019-01-26T09:36:23.904Z,153.53
2019-01-26T09:38:50.836Z,147.20
2019-01-26T09:41:17.720Z,128.47
2019-01-26T09:43:44.528Z,137.93
2019-01-26T09:46:13.477Z,141.77
2019-01-26T09:48:46.095Z,100.67
2019-01-26T09:51:08.700Z,114.10
2019-01-26T09:53:35.440Z,105.17
2019-01-26T09:56:02.114Z,124.37
2019-01-26T09:58:28.944Z,106.53
2019-01-26T10:00:55.749Z,106.73
2019-01-26T10:03:22.384Z,100.30
2019-01-26T10:05:49.029Z,94.93
2019-01-26T10:08:15.823Z,99.87
2019-01-26T10:10:42.655Z,92.77
2019-01-26T10:13:09.546Z,85.10
2019-01-26T10:15:36.391Z,90.77
2019-01-26T10:18:03.360Z,79.63
2019-01-26T10:20:30.897Z,84.10
2019-01-26T10:22:57.948Z,62.53
2019-01-26T10:25:24.936Z,46.33
2019-01-26T10:27:52.467Z,45.37
2019-01-26T10:30:23.922Z,46.13
2019-01-26T10:32:50.836Z,48.47
2019-01-26T10:35:17.607Z,47.57
2019-01-26T10:37:44.700Z,53.13
2019-01-26T10:40:40.172Z,59.07
2019-01-26T10:43:07.327Z,48.30
2019-01-26T10:45:34.304Z,48.40
2019-01-26T10:48:01.208Z,67.83
2019-01-26T10:50:28.087Z,57.93
2019-01-26T10:52:54.887Z,55.20
2019-01-26T10:55:21.885Z,66.13
2019-01-26T10:57:48.812Z,50.20
2019-01-26T11:00:15.864Z,51.10
2019-01-26T11:02:42.714Z,62.60
2019-01-26T11:05:09.832Z,48.00
2019-01-26T11:07:36.986Z,46.40
2019-01-26T11:10:04.116Z,66.90
2019-01-26T11:12:30.992Z,56.27
2019-01-26T11:14:57.841Z,45.37
2019-01-26T11:17:24.751Z,66.20
2019-01-26T11:19:51.658Z,57.77
2019-01-26T11:22:18.524Z,40.93
2019-01-26T11:24:45.396Z,51.10
2019-01-26T11:27:12.358Z,42.30
2019-01-26T11:29:39.406Z,56.03
2019-01-26T11:32:06.324Z,44.97
2019-01-26T11:34:33.310Z,36.33
2019-01-26T11:37:00.212Z,41.57
2019-01-26T11:39:27.078Z,41.50
2019-01-26T11:41:54.289Z,30.90
2019-01-26T11:44:21.163Z,44.37
2019-01-26T11:46:54.540Z,28.47
2019-01-26T11:49:21.391Z,33.80
2019-01-26T11:52:07.604Z,29.00
2019-01-26T11:54:34.806Z,33.10
2019-01-26T11:57:18.685Z,30.30
2019-01-26T12:00:05.392Z,29.70
2019-01-26T12:02:37.694Z,23.93
2019-01-26T12:05:10.988Z,23.93
2019-01-26T12:07:37.982Z,23.63
2019-01-26T12:10:06.479Z,30.50
2019-01-26T12:12:33.408Z,30.23
2019-01-26T12:15:00.236Z,23.33
2019-01-26T12:17:28.910Z,21.80
2019-01-26T12:19:55.831Z,33.70
2019-01-26T12:22:23.494Z,24.87
2019-01-26T12:24:50.399Z,19.17
2019-01-26T12:27:17.519Z,22.23
2019-01-26T12:29:44.616Z,23.00
2019-01-26T12:32:13.539Z,17.20
2019-01-26T12:34:40.513Z,21.30
2019-01-26T12:37:09.279Z,25.93
2019-01-26T12:39:36.354Z,32.27
2019-01-26T12:42:03.325Z,22.07
2019-01-26T12:44:30.260Z,19.00
2019-01-26T12:46:57.220Z,25.67
2019-01-26T12:49:29.506Z,23.60
2019-01-26T12:51:53.627Z,22.03
2019-01-26T12:54:20.518Z,23.17
2019-01-26T12:56:49.026Z,21.27
2019-01-26T12:59:16.254Z,21.77
2019-01-26T13:01:43.523Z,18.33
2019-01-26T13:04:10.578Z,19.23
2019-01-26T13:06:38.099Z,20.93
2019-01-26T13:09:06.719Z,21.43
2019-01-26T13:11:33.753Z,16.60
2019-01-26T13:14:00.909Z,22.73
2019-01-26T13:16:28.175Z,16.83
2019-01-26T13:18:55.337Z,17.30
2019-01-26T13:21:22.458Z,17.20
2019-01-26T13:23:49.792Z,19.50
2019-01-26T13:26:16.784Z,20.57
2019-01-26T13:28:43.644Z,31.57
2019-01-26T13:31:10.487Z,19.90
2019-01-26T13:33:37.690Z,21.80
2019-01-26T13:36:04.903Z,23.67
2019-01-26T13:38:31.924Z,19.50
2019-01-26T13:40:58.879Z,19.23
2019-01-26T13:43:25.721Z,17.00
2019-01-26T13:45:52.820Z,20.80
2019-01-26T13:48:19.853Z,22.40
2019-01-26T13:50:49.320Z,20.37
2019-01-26T13:53:16.247Z,14.40
2019-01-26T13:55:43.880Z,17.20
2019-01-26T13:58:10.856Z,28.03
2019-01-26T14:00:38.005Z,12.47
2019-01-26T14:03:05.296Z,14.17
2019-01-26T14:05:32.605Z,16.77
2019-01-26T14:07:59.723Z,16.50
2019-01-26T14:10:27.541Z,15.57
2019-01-26T14:12:55.265Z,15.47
2019-01-26T14:15:23.411Z,14.40
2019-01-26T14:17:50.375Z,15.73
2019-01-26T14:20:18.487Z,13.23
2019-01-26T14:22:47.122Z,12.60
2019-01-26T14:25:14.507Z,10.33
2019-01-26T14:27:41.605Z,14.40
2019-01-26T14:30:16.387Z,16.70
2019-01-26T14:32:43.692Z,15.47
2019-01-26T14:35:10.763Z,23.57
2019-01-26T14:37:37.862Z,16.70
2019-01-26T14:40:05.566Z,24.70
2019-01-26T14:42:32.682Z,23.47
2019-01-26T14:44:59.831Z,17.23
2019-01-26T14:47:30.909Z,21.23
2019-01-26T14:49:58.584Z,18.73
2019-01-26T14:52:25.735Z,21.40
2019-01-26T14:54:52.910Z,17.23
2019-01-26T14:57:19.723Z,19.53
2019-01-26T14:59:46.548Z,24.20
2019-01-26T15:02:13.685Z,22.93
2019-01-26T15:04:40.674Z,23.20
2019-01-26T15:07:07.520Z,19.53
2019-01-26T15:09:34.397Z,19.00
2019-01-26T15:12:01.335Z,17.63
2019-01-26T15:14:28.360Z,17.90
2019-01-26T15:16:55.256Z,20.70
2019-01-26T15:19:22.155Z,20.10
2019-01-26T15:21:49.076Z,20.10
2019-01-26T15:24:16.199Z,20.27
2019-01-26T15:26:43.220Z,28.70
2019-01-26T15:29:10.390Z,23.77
2019-01-26T15:31:37.356Z,21.37
2019-01-26T15:34:04.724Z,21.07
2019-01-26T15:36:32.696Z,19.00
2019-01-26T15:38:59.686Z,16.40
2019-01-26T15:41:26.778Z,15.50
2019-01-26T15:43:53.694Z,18.63
2019-01-26T15:46:20.628Z,16.07
2019-01-26T15:48:47.563Z,19.03
2019-01-26T15:51:14.429Z,17.90
2019-01-26T15:53:41.409Z,17.40
2019-01-26T15:56:08.293Z,18.70
2019-01-26T15:58:35.209Z,22.00
2019-01-26T16:01:02.101Z,19.40
2019-01-26T16:03:29.245Z,21.00
2019-01-26T16:05:56.165Z,24.37
2019-01-26T16:08:23.385Z,35.03
2019-01-26T16:10:50.497Z,22.47
2019-01-26T16:13:17.803Z,26.90
2019-01-26T16:15:44.932Z,28.00
2019-01-26T16:18:13.166Z,26.60
2019-01-26T16:20:40.408Z,20.80
2019-01-26T16:23:09.642Z,28.80
2019-01-26T16:25:36.719Z,27.43
2019-01-26T16:28:04.229Z,30.00
2019-01-26T16:30:32.295Z,26.60
2019-01-26T16:32:59.616Z,26.80
2019-01-26T16:35:26.984Z,25.10
2019-01-26T16:37:54.213Z,24.97
2019-01-26T16:40:22.630Z,27.93
2019-01-26T16:42:49.752Z,26.17
2019-01-26T16:45:18.070Z,28.17
2019-01-26T16:47:45.581Z,27.00
2019-01-26T16:50:17.270Z,28.80
2019-01-26T16:52:44.363Z,30.97
2019-01-26T16:55:11.505Z,29.50
2019-01-26T16:57:39.546Z,32.50
2019-01-26T17:00:09.968Z,31.07
2019-01-26T17:02:36.900Z,35.57
2019-01-26T17:05:04.630Z,29.23
2019-01-26T17:07:37.092Z,35.07
2019-01-26T17:10:04.124Z,41.73
2019-01-26T17:12:31.220Z,33.00
2019-01-26T17:14:58.386Z,36.90
2019-01-26T17:17:25.755Z,30.30
2019-01-26T17:19:53.604Z,34.70
2019-01-26T17:22:20.655Z,33.97
2019-01-26T17:24:47.634Z,39.77
2019-01-26T17:27:14.784Z,34.40
2019-01-26T17:29:41.687Z,36.63
2019-01-26T17:32:08.928Z,37.07
2019-01-26T17:34:35.854Z,41.77
2019-01-26T17:37:03.238Z,37.33
2019-01-26T17:39:30.448Z,37.90
2019-01-26T17:41:57.317Z,35.83
2019-01-26T17:44:24.393Z,40.07
2019-01-26T17:46:52.978Z,34.80
2019-01-26T17:49:20.253Z,44.93
2019-01-26T17:51:47.219Z,43.40
2019-01-26T17:54:14.302Z,36.47
2019-01-26T17:56:41.403Z,33.77
2019-01-26T17:59:08.512Z,36.83
2019-01-26T18:01:35.534Z,47.83
2019-01-26T18:04:02.893Z,32.53
2019-01-26T18:06:29.952Z,32.67
2019-01-26T18:08:57.005Z,31.97
2019-01-26T18:11:24.010Z,29.50
2019-01-26T18:13:50.908Z,32.50
2019-01-26T18:16:17.889Z,32.30
2019-01-26T18:18:44.809Z,29.30
2019-01-26T18:21:11.817Z,36.80
2019-01-26T18:23:39.832Z,35.87
2019-01-26T18:26:07.983Z,35.30
2019-01-26T18:28:35.692Z,40.70
2019-01-26T18:31:02.775Z,32.20
2019-01-26T18:33:29.876Z,36.23
2019-01-26T18:35:56.800Z,37.73
2019-01-26T18:38:23.662Z,39.40
2019-01-26T18:40:51.116Z,47.33
2019-01-26T18:43:18.257Z,38.87
2019-01-26T18:45:45.259Z,34.57
2019-01-26T18:48:14.831Z,33.17
2019-01-26T18:50:42.516Z,31.57
2019-01-26T18:53:09.749Z,33.83
2019-01-26T18:55:36.974Z,38.83
2019-01-26T18:58:03.983Z,34.73
2019-01-26T19:00:32.258Z,32.10
2019-01-26T19:03:13.513Z,32.87
2019-01-26T19:05:40.335Z,33.03
2019-01-26T19:08:07.265Z,31.47
2019-01-26T19:10:34.273Z,32.83
2019-01-26T19:13:01.190Z,37.53
2019-01-26T19:15:28.352Z,35.90
2019-01-26T19:17:55.400Z,35.80
2019-01-26T19:20:22.436Z,33.60
2019-01-26T19:22:49.740Z,39.43
2019-01-26T19:25:16.700Z,42.63
2019-01-26T19:27:43.639Z,36.70
2019-01-26T19:30:13.180Z,34.23
2019-01-26T19:32:40.136Z,32.70
2019-01-26T19:35:07.387Z,30.83
2019-01-26T19:37:34.399Z,35.40
2019-01-26T19:40:01.368Z,31.90
2019-01-26T19:42:28.870Z,35.10
2019-01-26T19:44:56.033Z,33.63
2019-01-26T19:47:24.971Z,37.50
2019-01-26T19:49:51.767Z,36.33
2019-01-26T19:52:18.591Z,40.53
2019-01-26T19:54:46.011Z,39.73
2019-01-26T19:57:12.899Z,36.13
2019-01-26T19:59:39.751Z,41.70
2019-01-26T20:02:06.895Z,40.37
2019-01-26T20:04:33.683Z,43.40
2019-01-26T20:07:00.672Z,56.00
2019-01-26T20:09:28.025Z,50.30
2019-01-26T20:11:54.927Z,39.27
2019-01-26T20:14:21.779Z,35.00
2019-01-26T20:16:48.580Z,35.50
2019-01-26T20:19:15.544Z,39.40
2019-01-26T20:21:42.610Z,42.07
2019-01-26T20:24:09.835Z,34.97
2019-01-26T20:26:36.657Z,33.77
2019-01-26T20:29:03.665Z,39.37
2019-01-26T20:31:31.042Z,29.50
2019-01-26T20:33:58.207Z,24.07
2019-01-26T20:36:25.251Z,30.43
2019-01-26T20:38:52.504Z,35.30
2019-01-26T20:41:19.394Z,42.13
2019-01-26T20:43:46.242Z,31.10
2019-01-26T20:46:13.151Z,34.00
2019-01-26T20:48:40.101Z,35.40
2019-01-26T20:51:07.295Z,36.90
2019-01-26T20:53:34.305Z,36.00
2019-01-26T20:56:01.342Z,42.33
2019-01-26T20:58:28.258Z,38.93
2019-01-26T21:00:55.432Z,38.60
2019-01-26T21:03:22.315Z,41.30
2019-01-26T21:05:49.212Z,48.37
2019-01-26T21:08:16.067Z,41.70
2019-01-26T21:10:42.874Z,40.73
2019-01-26T21:13:16.109Z,48.33
2019-01-26T21:15:38.617Z,41.93
2019-01-26T21:18:05.419Z,39.33
2019-01-26T21:20:32.199Z,49.03
2019-01-26T21:22:59.049Z,41.20
2019-01-26T21:25:26.022Z,44.80
2019-01-26T21:27:53.023Z,44.47
2019-01-26T21:30:21.289Z,39.30
2019-01-26T21:32:48.237Z,35.37
2019-01-26T21:35:15.097Z,37.77
2019-01-26T21:37:41.895Z,38.97
2019-01-26T21:40:10.253Z,40.97
2019-01-26T21:42:37.056Z,35.40
2019-01-26T21:45:04.441Z,42.73
2019-01-26T21:47:31.612Z,42.83
2019-01-26T21:49:59.251Z,42.70
2019-01-26T21:52:26.141Z,40.57
2019-01-26T21:54:54.163Z,42.40
2019-01-26T21:57:21.023Z,40.23
2019-01-26T21:59:47.935Z,41.23
2019-01-26T22:02:15.213Z,43.07
2019-01-26T22:04:42.093Z,39.27
2019-01-26T22:07:09.209Z,46.70
2019-01-26T22:09:36.780Z,46.67
2019-01-26T22:12:03.754Z,38.97
2019-01-26T22:14:30.604Z,42.90
2019-01-26T22:16:57.447Z,41.77
2019-01-26T22:19:24.290Z,46.00
2019-01-26T22:21:51.125Z,47.10
2019-01-26T22:24:17.920Z,45.13
2019-01-26T22:26:44.952Z,42.13
2019-01-26T22:29:11.912Z,43.47
2019-01-26T22:31:38.807Z,44.27
2019-01-26T22:34:05.616Z,51.30
2019-01-26T22:36:32.583Z,48.00
2019-01-26T22:38:59.980Z,47.40
2019-01-26T22:41:26.811Z,50.10
2019-01-26T22:43:53.844Z,44.80
2019-01-26T22:46:20.920Z,51.13
2019-01-26T22:48:47.956Z,50.40
2019-01-26T22:51:14.865Z,52.70
2019-01-26T22:53:42.209Z,48.47
2019-01-26T22:56:09.691Z,54.60
2019-01-26T22:58:36.613Z,52.60
2019-01-26T23:01:18.175Z,51.00
2019-01-26T23:04:04.452Z,55.83
2019-01-26T23:06:43.270Z,48.93
2019-01-26T23:09:12.260Z,61.63
2019-01-26T23:11:44.273Z,51.57
2019-01-26T23:14:24.718Z,53.10
2019-01-26T23:17:03.576Z,54.60
2019-01-26T23:19:39.757Z,63.67
2019-01-26T23:22:13.483Z,60.50
2019-01-26T23:24:42.872Z,64.07
2019-01-26T23:27:32.884Z,62.70
2019-01-26T23:30:04.169Z,60.67
2019-01-26T23:32:31.229Z,57.37
2019-01-26T23:34:58.152Z,62.60
2019-01-26T23:37:25.148Z,68.73
2019-01-26T23:39:51.976Z,62.27
2019-01-26T23:42:18.910Z,66.53
2019-01-26T23:44:45.894Z,60.43
2019-01-26T23:47:13.004Z,58.87
2019-01-26T23:49:39.827Z,59.30
2019-01-26T23:52:06.851Z,62.57
2019-01-26T23:54:33.756Z,56.77
2019-01-26T23:57:00.903Z,61.83
2019-01-26T23:59:27.827Z,59.33
